Alamo, Texas
Current Conditions -  °F | °C
As of 8:21 PM on Thursday 18 Dec 2014 (Local Time) from KMFE Reporting Station
Light Rain Light Rain  
Wind Chill: 17°   Ceiling: 1400
Heat Index: 17°   Visibility: 3mi
Dew Point: 17°   Wind: 6mph
Humidity: 97%   Direction: 300°WNW
Pressure: 30.01"   Gusts: NA
Location:  26.18°N, 98.12°W
Report Text: KMFE 190221Z 30005KT 3SM -RA BR FEW004 BKN014 OVC019 17/17 A3001 RMK AO2 P0002 T01720167
Loading
Personal Weather Stations






























Interactive Weather Map New forecast layout! Learn more

10-Day Weather Forecast

Advertisements
Track Severe Weather on mobile